sensor_id;sensor_type;location;lat;lon;timestamp;P1;durP1;ratioP1;P2;durP2;ratioP2
15624;SDS011;7912;51.376;6.126;2022-09-02T00:03:51;2.90;;;2.03;;
15624;SDS011;7912;51.376;6.126;2022-09-02T00:06:23;3.33;;;2.10;;
15624;SDS011;7912;51.376;6.126;2022-09-02T00:08:51;2.47;;;2.07;;
15624;SDS011;7912;51.376;6.126;2022-09-02T00:11:20;3.17;;;2.20;;
15624;SDS011;7912;51.376;6.126;2022-09-02T00:13:53;2.47;;;2.10;;
15624;SDS011;7912;51.376;6.126;2022-09-02T00:16:21;4.33;;;1.87;;
15624;SDS011;7912;51.376;6.126;2022-09-02T00:18:51;2.40;;;2.20;;
15624;SDS011;7912;51.376;6.126;2022-09-02T00:21:19;3.67;;;2.13;;
15624;SDS011;7912;51.376;6.126;2022-09-02T00:23:47;3.23;;;2.10;;
15624;SDS011;7912;51.376;6.126;2022-09-02T00:26:14;4.00;;;2.00;;
15624;SDS011;7912;51.376;6.126;2022-09-02T00:28:42;3.90;;;1.93;;
15624;SDS011;7912;51.376;6.126;2022-09-02T00:31:21;3.70;;;2.10;;
15624;SDS011;7912;51.376;6.126;2022-09-02T00:33:50;2.60;;;2.07;;
15624;SDS011;7912;51.376;6.126;2022-09-02T00:36:17;2.37;;;2.00;;
15624;SDS011;7912;51.376;6.126;2022-09-02T00:38:45;3.43;;;2.07;;
15624;SDS011;7912;51.376;6.126;2022-09-02T00:41:13;2.73;;;2.30;;
15624;SDS011;7912;51.376;6.126;2022-09-02T00:44:00;4.00;;;2.20;;
15624;SDS011;7912;51.376;6.126;2022-09-02T00:46:31;2.40;;;2.20;;
15624;SDS011;7912;51.376;6.126;2022-09-02T00:49:00;2.17;;;1.97;;
15624;SDS011;7912;51.376;6.126;2022-09-02T00:51:52;2.20;;;1.90;;
15624;SDS011;7912;51.376;6.126;2022-09-02T00:54:26;2.17;;;1.97;;
15624;SDS011;7912;51.376;6.126;2022-09-02T00:57:00;5.07;;;2.50;;
15624;SDS011;7912;51.376;6.126;2022-09-02T00:59:44;8.23;;;2.43;;
15624;SDS011;7912;51.376;6.126;2022-09-02T01:02:22;2.77;;;1.80;;
15624;SDS011;7912;51.376;6.126;2022-09-02T01:04:54;2.60;;;2.33;;
15624;SDS011;7912;51.376;6.126;2022-09-02T01:07:23;4.70;;;2.40;;
15624;SDS011;7912;51.376;6.126;2022-09-02T01:09:57;3.30;;;2.17;;
15624;SDS011;7912;51.376;6.126;2022-09-02T01:12:25;3.73;;;2.40;;
15624;SDS011;7912;51.376;6.126;2022-09-02T01:14:56;2.33;;;1.90;;
15624;SDS011;7912;51.376;6.126;2022-09-02T01:17:24;2.40;;;2.10;;
15624;SDS011;7912;51.376;6.126;2022-09-02T01:19:59;3.63;;;2.10;;
15624;SDS011;7912;51.376;6.126;2022-09-02T01:22:32;3.23;;;2.23;;
15624;SDS011;7912;51.376;6.126;2022-09-02T01:25:02;3.23;;;2.40;;
15624;SDS011;7912;51.376;6.126;2022-09-02T01:27:34;4.13;;;2.10;;
15624;SDS011;7912;51.376;6.126;2022-09-02T01:30:02;3.27;;;2.40;;
15624;SDS011;7912;51.376;6.126;2022-09-02T01:32:32;4.07;;;2.40;;
15624;SDS011;7912;51.376;6.126;2022-09-02T01:35:00;2.80;;;2.10;;
15624;SDS011;7912;51.376;6.126;2022-09-02T01:37:27;3.40;;;2.20;;
15624;SDS011;7912;51.376;6.126;2022-09-02T01:39:54;3.13;;;2.23;;
15624;SDS011;7912;51.376;6.126;2022-09-02T01:42:22;2.57;;;2.23;;
15624;SDS011;7912;51.376;6.126;2022-09-02T01:44:50;4.23;;;2.40;;
15624;SDS011;7912;51.376;6.126;2022-09-02T01:47:23;2.23;;;2.03;;
15624;SDS011;7912;51.376;6.126;2022-09-02T01:49:52;3.40;;;2.30;;
15624;SDS011;7912;51.376;6.126;2022-09-02T01:52:21;2.40;;;2.20;;
15624;SDS011;7912;51.376;6.126;2022-09-02T01:54:50;2.30;;;2.10;;
15624;SDS011;7912;51.376;6.126;2022-09-02T01:57:18;2.70;;;2.30;;
15624;SDS011;7912;51.376;6.126;2022-09-02T01:59:46;2.87;;;2.10;;
15624;SDS011;7912;51.376;6.126;2022-09-02T02:02:13;4.50;;;2.20;;
15624;SDS011;7912;51.376;6.126;2022-09-02T02:04:42;3.20;;;2.17;;
15624;SDS011;7912;51.376;6.126;2022-09-02T02:07:09;4.47;;;2.30;;
15624;SDS011;7912;51.376;6.126;2022-09-02T02:09:38;2.17;;;1.97;;
15624;SDS011;7912;51.376;6.126;2022-09-02T02:12:07;4.07;;;2.03;;
15624;SDS011;7912;51.376;6.126;2022-09-02T02:14:35;5.43;;;2.13;;
15624;SDS011;7912;51.376;6.126;2022-09-02T02:17:03;2.87;;;2.27;;
15624;SDS011;7912;51.376;6.126;2022-09-02T02:19:30;3.83;;;1.90;;
15624;SDS011;7912;51.376;6.126;2022-09-02T02:21:58;3.03;;;2.07;;
15624;SDS011;7912;51.376;6.126;2022-09-02T02:24:26;2.53;;;1.93;;
15624;SDS011;7912;51.376;6.126;2022-09-02T02:26:54;3.40;;;2.27;;
15624;SDS011;7912;51.376;6.126;2022-09-02T02:29:21;2.60;;;1.90;;
15624;SDS011;7912;51.376;6.126;2022-09-02T02:34:57;1.90;;;1.80;;
15624;SDS011;7912;51.376;6.126;2022-09-02T02:40:15;3.60;;;2.20;;
15624;SDS011;7912;51.376;6.126;2022-09-02T02:42:46;3.50;;;2.03;;
15624;SDS011;7912;51.376;6.126;2022-09-02T02:45:15;2.63;;;2.20;;
15624;SDS011;7912;51.376;6.126;2022-09-02T02:47:42;4.00;;;2.33;;
15624;SDS011;7912;51.376;6.126;2022-09-02T02:50:13;3.87;;;2.40;;
15624;SDS011;7912;51.376;6.126;2022-09-02T02:52:45;2.67;;;2.30;;
15624;SDS011;7912;51.376;6.126;2022-09-02T02:55:14;3.37;;;2.20;;
15624;SDS011;7912;51.376;6.126;2022-09-02T02:57:42;3.23;;;2.07;;
15624;SDS011;7912;51.376;6.126;2022-09-02T03:00:18;4.70;;;1.90;;
15624;SDS011;7912;51.376;6.126;2022-09-02T03:02:56;2.20;;;2.00;;
15624;SDS011;7912;51.376;6.126;2022-09-02T03:05:35;3.03;;;2.27;;
15624;SDS011;7912;51.376;6.126;2022-09-02T03:08:04;2.67;;;1.90;;
15624;SDS011;7912;51.376;6.126;2022-09-02T03:10:35;2.53;;;2.10;;
15624;SDS011;7912;51.376;6.126;2022-09-02T03:13:06;3.37;;;2.03;;
15624;SDS011;7912;51.376;6.126;2022-09-02T03:15:37;2.47;;;1.80;;
15624;SDS011;7912;51.376;6.126;2022-09-02T03:18:05;2.30;;;2.10;;
15624;SDS011;7912;51.376;6.126;2022-09-02T03:20:32;4.90;;;2.03;;
15624;SDS011;7912;51.376;6.126;2022-09-02T03:23:02;2.60;;;2.30;;
15624;SDS011;7912;51.376;6.126;2022-09-02T03:25:30;3.40;;;1.90;;
15624;SDS011;7912;51.376;6.126;2022-09-02T03:28:01;2.50;;;2.10;;
15624;SDS011;7912;51.376;6.126;2022-09-02T03:30:31;2.90;;;2.17;;
15624;SDS011;7912;51.376;6.126;2022-09-02T03:33:00;3.27;;;2.03;;
15624;SDS011;7912;51.376;6.126;2022-09-02T03:35:31;2.27;;;2.07;;
15624;SDS011;7912;51.376;6.126;2022-09-02T03:37:59;2.53;;;2.10;;
15624;SDS011;7912;51.376;6.126;2022-09-02T03:40:27;2.90;;;1.80;;
15624;SDS011;7912;51.376;6.126;2022-09-02T03:42:55;3.30;;;2.10;;
15624;SDS011;7912;51.376;6.126;2022-09-02T03:45:25;2.60;;;2.30;;
15624;SDS011;7912;51.376;6.126;2022-09-02T03:47:54;2.60;;;2.00;;
15624;SDS011;7912;51.376;6.126;2022-09-02T03:50:23;2.97;;;2.20;;
15624;SDS011;7912;51.376;6.126;2022-09-02T03:52:57;2.30;;;2.10;;
15624;SDS011;7912;51.376;6.126;2022-09-02T03:55:26;4.00;;;2.10;;
15624;SDS011;7912;51.376;6.126;2022-09-02T03:57:54;3.40;;;2.33;;
15624;SDS011;7912;51.376;6.126;2022-09-02T04:00:23;3.97;;;2.00;;
15624;SDS011;7912;51.376;6.126;2022-09-02T04:02:55;2.67;;;1.93;;
15624;SDS011;7912;51.376;6.126;2022-09-02T04:05:23;3.33;;;2.00;;
15624;SDS011;7912;51.376;6.126;2022-09-02T04:07:50;2.07;;;1.87;;
15624;SDS011;7912;51.376;6.126;2022-09-02T04:10:18;2.67;;;1.90;;
15624;SDS011;7912;51.376;6.126;2022-09-02T04:12:47;4.50;;;2.20;;
15624;SDS011;7912;51.376;6.126;2022-09-02T04:15:16;1.70;;;1.60;;
15624;SDS011;7912;51.376;6.126;2022-09-02T04:17:45;3.23;;;2.20;;
15624;SDS011;7912;51.376;6.126;2022-09-02T04:20:12;2.27;;;2.07;;
15624;SDS011;7912;51.376;6.126;2022-09-02T04:22:40;3.50;;;2.40;;
15624;SDS011;7912;51.376;6.126;2022-09-02T04:25:07;2.87;;;2.10;;
15624;SDS011;7912;51.376;6.126;2022-09-02T04:27:35;3.20;;;2.30;;
15624;SDS011;7912;51.376;6.126;2022-09-02T04:30:04;3.03;;;1.90;;
15624;SDS011;7912;51.376;6.126;2022-09-02T04:32:34;2.37;;;1.80;;
15624;SDS011;7912;51.376;6.126;2022-09-02T04:35:06;3.10;;;2.30;;
15624;SDS011;7912;51.376;6.126;2022-09-02T04:37:34;3.33;;;1.97;;
15624;SDS011;7912;51.376;6.126;2022-09-02T04:40:01;2.90;;;1.90;;
15624;SDS011;7912;51.376;6.126;2022-09-02T04:42:29;2.10;;;1.90;;
15624;SDS011;7912;51.376;6.126;2022-09-02T04:44:56;2.47;;;2.03;;
15624;SDS011;7912;51.376;6.126;2022-09-02T04:47:24;3.17;;;1.97;;
15624;SDS011;7912;51.376;6.126;2022-09-02T04:49:52;3.20;;;2.33;;
15624;SDS011;7912;51.376;6.126;2022-09-02T04:52:20;3.63;;;2.13;;
15624;SDS011;7912;51.376;6.126;2022-09-02T04:54:48;3.30;;;2.30;;
15624;SDS011;7912;51.376;6.126;2022-09-02T04:57:15;3.57;;;2.37;;
15624;SDS011;7912;51.376;6.126;2022-09-02T04:59:43;4.07;;;2.27;;
15624;SDS011;7912;51.376;6.126;2022-09-02T05:02:11;3.13;;;2.03;;
15624;SDS011;7912;51.376;6.126;2022-09-02T05:04:39;2.53;;;2.00;;
15624;SDS011;7912;51.376;6.126;2022-09-02T05:07:06;3.10;;;2.00;;
15624;SDS011;7912;51.376;6.126;2022-09-02T05:09:33;3.73;;;2.17;;
15624;SDS011;7912;51.376;6.126;2022-09-02T05:12:01;3.53;;;1.97;;
15624;SDS011;7912;51.376;6.126;2022-09-02T05:14:30;4.77;;;2.17;;
15624;SDS011;7912;51.376;6.126;2022-09-02T05:16:58;2.40;;;1.87;;
15624;SDS011;7912;51.376;6.126;2022-09-02T05:19:32;2.37;;;2.00;;
15624;SDS011;7912;51.376;6.126;2022-09-02T05:22:00;2.90;;;2.00;;
15624;SDS011;7912;51.376;6.126;2022-09-02T05:24:28;4.57;;;1.90;;
15624;SDS011;7912;51.376;6.126;2022-09-02T05:26:55;2.97;;;1.87;;
15624;SDS011;7912;51.376;6.126;2022-09-02T05:29:23;5.10;;;2.17;;
15624;SDS011;7912;51.376;6.126;2022-09-02T05:31:53;2.20;;;2.00;;
15624;SDS011;7912;51.376;6.126;2022-09-02T05:34:21;2.30;;;2.10;;
15624;SDS011;7912;51.376;6.126;2022-09-02T05:36:48;2.10;;;1.90;;
15624;SDS011;7912;51.376;6.126;2022-09-02T05:39:16;5.53;;;2.27;;
15624;SDS011;7912;51.376;6.126;2022-09-02T05:41:43;4.83;;;2.27;;
15624;SDS011;7912;51.376;6.126;2022-09-02T05:44:11;2.20;;;2.00;;
15624;SDS011;7912;51.376;6.126;2022-09-02T05:46:39;2.93;;;1.80;;
15624;SDS011;7912;51.376;6.126;2022-09-02T05:55:05;2.80;;;2.10;;
15624;SDS011;7912;51.376;6.126;2022-09-02T05:57:33;3.77;;;2.00;;
15624;SDS011;7912;51.376;6.126;2022-09-02T06:00:02;2.63;;;2.03;;
15624;SDS011;7912;51.376;6.126;2022-09-02T06:02:33;2.90;;;1.97;;
15624;SDS011;7912;51.376;6.126;2022-09-02T06:05:00;2.30;;;2.07;;
15624;SDS011;7912;51.376;6.126;2022-09-02T06:07:28;2.57;;;1.80;;
15624;SDS011;7912;51.376;6.126;2022-09-02T06:09:55;2.63;;;2.07;;
15624;SDS011;7912;51.376;6.126;2022-09-02T06:12:23;2.93;;;2.13;;
15624;SDS011;7912;51.376;6.126;2022-09-02T06:14:51;2.10;;;1.90;;
15624;SDS011;7912;51.376;6.126;2022-09-02T06:17:18;4.17;;;2.10;;
15624;SDS011;7912;51.376;6.126;2022-09-02T06:19:46;4.63;;;2.40;;
15624;SDS011;7912;51.376;6.126;2022-09-02T06:22:17;1.97;;;1.80;;
15624;SDS011;7912;51.376;6.126;2022-09-02T06:24:48;2.97;;;2.20;;
15624;SDS011;7912;51.376;6.126;2022-09-02T06:27:52;3.17;;;2.10;;
15624;SDS011;7912;51.376;6.126;2022-09-02T06:30:20;2.67;;;1.87;;
15624;SDS011;7912;51.376;6.126;2022-09-02T06:32:47;5.83;;;2.30;;
15624;SDS011;7912;51.376;6.126;2022-09-02T06:35:15;2.57;;;2.07;;
15624;SDS011;7912;51.376;6.126;2022-09-02T06:37:43;2.13;;;1.80;;
15624;SDS011;7912;51.376;6.126;2022-09-02T06:40:10;2.10;;;1.90;;
15624;SDS011;7912;51.376;6.126;2022-09-02T06:42:39;1.90;;;1.80;;
15624;SDS011;7912;51.376;6.126;2022-09-02T06:45:07;3.60;;;1.93;;
15624;SDS011;7912;51.376;6.126;2022-09-02T06:47:35;2.70;;;1.70;;
15624;SDS011;7912;51.376;6.126;2022-09-02T06:50:03;4.70;;;1.73;;
15624;SDS011;7912;51.376;6.126;2022-09-02T06:52:31;2.97;;;2.40;;
15624;SDS011;7912;51.376;6.126;2022-09-02T06:54:58;4.60;;;2.00;;
15624;SDS011;7912;51.376;6.126;2022-09-02T06:57:26;2.50;;;2.03;;
15624;SDS011;7912;51.376;6.126;2022-09-02T06:59:59;2.73;;;1.70;;
15624;SDS011;7912;51.376;6.126;2022-09-02T07:02:27;3.03;;;1.73;;
15624;SDS011;7912;51.376;6.126;2022-09-02T07:04:54;2.47;;;2.00;;
15624;SDS011;7912;51.376;6.126;2022-09-02T07:07:41;3.23;;;2.10;;
15624;SDS011;7912;51.376;6.126;2022-09-02T07:10:12;3.10;;;1.97;;
15624;SDS011;7912;51.376;6.126;2022-09-02T07:12:40;3.10;;;2.00;;
15624;SDS011;7912;51.376;6.126;2022-09-02T07:15:09;3.23;;;2.00;;
15624;SDS011;7912;51.376;6.126;2022-09-02T07:17:37;3.20;;;2.00;;
15624;SDS011;7912;51.376;6.126;2022-09-02T07:20:05;4.37;;;1.93;;
15624;SDS011;7912;51.376;6.126;2022-09-02T07:22:33;3.47;;;2.00;;
15624;SDS011;7912;51.376;6.126;2022-09-02T07:25:01;2.27;;;1.77;;
15624;SDS011;7912;51.376;6.126;2022-09-02T07:27:29;2.87;;;1.80;;
15624;SDS011;7912;51.376;6.126;2022-09-02T07:29:56;2.90;;;1.80;;
15624;SDS011;7912;51.376;6.126;2022-09-02T07:32:25;2.00;;;1.83;;
15624;SDS011;7912;51.376;6.126;2022-09-02T07:34:53;2.77;;;1.90;;
15624;SDS011;7912;51.376;6.126;2022-09-02T07:37:20;4.23;;;2.27;;
15624;SDS011;7912;51.376;6.126;2022-09-02T07:39:49;2.40;;;1.80;;
15624;SDS011;7912;51.376;6.126;2022-09-02T07:42:16;1.90;;;1.80;;
15624;SDS011;7912;51.376;6.126;2022-09-02T07:44:44;5.40;;;1.93;;
15624;SDS011;7912;51.376;6.126;2022-09-02T07:47:12;3.60;;;2.10;;
15624;SDS011;7912;51.376;6.126;2022-09-02T07:49:39;4.17;;;2.10;;
15624;SDS011;7912;51.376;6.126;2022-09-02T07:52:27;2.43;;;1.53;;
15624;SDS011;7912;51.376;6.126;2022-09-02T07:54:54;2.33;;;1.93;;
15624;SDS011;7912;51.376;6.126;2022-09-02T07:57:21;3.10;;;2.00;;
15624;SDS011;7912;51.376;6.126;2022-09-02T07:59:49;4.20;;;1.93;;
15624;SDS011;7912;51.376;6.126;2022-09-02T08:02:16;3.10;;;1.90;;
15624;SDS011;7912;51.376;6.126;2022-09-02T08:04:45;2.03;;;1.70;;
15624;SDS011;7912;51.376;6.126;2022-09-02T08:07:12;2.63;;;1.90;;
15624;SDS011;7912;51.376;6.126;2022-09-02T08:09:39;2.30;;;1.97;;
15624;SDS011;7912;51.376;6.126;2022-09-02T08:12:07;3.47;;;2.07;;
15624;SDS011;7912;51.376;6.126;2022-09-02T08:14:34;2.87;;;2.10;;
15624;SDS011;7912;51.376;6.126;2022-09-02T08:17:02;2.50;;;2.00;;
15624;SDS011;7912;51.376;6.126;2022-09-02T08:19:29;3.43;;;2.10;;
15624;SDS011;7912;51.376;6.126;2022-09-02T08:22:01;4.00;;;2.07;;
15624;SDS011;7912;51.376;6.126;2022-09-02T08:24:34;2.87;;;2.13;;
15624;SDS011;7912;51.376;6.126;2022-09-02T08:27:01;2.20;;;2.00;;
15624;SDS011;7912;51.376;6.126;2022-09-02T08:29:28;3.87;;;1.97;;
15624;SDS011;7912;51.376;6.126;2022-09-02T08:31:57;3.37;;;2.30;;
15624;SDS011;7912;51.376;6.126;2022-09-02T08:34:24;3.60;;;2.20;;
15624;SDS011;7912;51.376;6.126;2022-09-02T08:36:51;3.10;;;2.30;;
15624;SDS011;7912;51.376;6.126;2022-09-02T08:39:22;3.60;;;2.50;;
15624;SDS011;7912;51.376;6.126;2022-09-02T08:44:49;2.57;;;1.90;;
15624;SDS011;7912;51.376;6.126;2022-09-02T08:47:23;3.13;;;2.00;;
15624;SDS011;7912;51.376;6.126;2022-09-02T08:50:02;2.70;;;2.30;;
15624;SDS011;7912;51.376;6.126;2022-09-02T08:55:32;2.90;;;2.30;;
15624;SDS011;7912;51.376;6.126;2022-09-02T08:58:16;3.70;;;2.00;;
15624;SDS011;7912;51.376;6.126;2022-09-02T09:01:01;2.77;;;2.07;;
15624;SDS011;7912;51.376;6.126;2022-09-02T09:06:47;3.77;;;2.00;;
15624;SDS011;7912;51.376;6.126;2022-09-02T09:12:59;3.87;;;2.20;;
15624;SDS011;7912;51.376;6.126;2022-09-02T09:15:58;3.03;;;1.90;;
15624;SDS011;7912;51.376;6.126;2022-09-02T09:22:31;2.70;;;2.10;;
15624;SDS011;7912;51.376;6.126;2022-09-02T09:25:13;2.20;;;1.80;;
15624;SDS011;7912;51.376;6.126;2022-09-02T09:27:43;3.30;;;2.10;;
15624;SDS011;7912;51.376;6.126;2022-09-02T09:30:12;2.53;;;2.00;;
15624;SDS011;7912;51.376;6.126;2022-09-02T09:32:54;1.90;;;1.67;;
15624;SDS011;7912;51.376;6.126;2022-09-02T09:35:45;2.00;;;1.90;;
15624;SDS011;7912;51.376;6.126;2022-09-02T09:38:32;2.30;;;1.90;;
15624;SDS011;7912;51.376;6.126;2022-09-02T09:41:09;3.70;;;2.03;;
15624;SDS011;7912;51.376;6.126;2022-09-02T09:43:45;5.93;;;2.27;;
15624;SDS011;7912;51.376;6.126;2022-09-02T09:46:46;3.57;;;2.20;;
15624;SDS011;7912;51.376;6.126;2022-09-02T09:49:06;4.03;;;2.10;;
15624;SDS011;7912;51.376;6.126;2022-09-02T09:51:36;2.40;;;1.90;;
15624;SDS011;7912;51.376;6.126;2022-09-02T09:54:19;2.43;;;1.90;;
15624;SDS011;7912;51.376;6.126;2022-09-02T09:56:47;2.60;;;2.10;;
15624;SDS011;7912;51.376;6.126;2022-09-02T09:59:35;3.33;;;1.90;;
15624;SDS011;7912;51.376;6.126;2022-09-02T10:02:12;2.17;;;1.97;;
15624;SDS011;7912;51.376;6.126;2022-09-02T10:04:47;2.57;;;1.90;;
15624;SDS011;7912;51.376;6.126;2022-09-02T10:07:37;2.10;;;1.90;;
15624;SDS011;7912;51.376;6.126;2022-09-02T10:10:18;2.20;;;1.60;;
15624;SDS011;7912;51.376;6.126;2022-09-02T10:12:49;4.60;;;2.07;;
15624;SDS011;7912;51.376;6.126;2022-09-02T10:15:26;2.53;;;1.90;;
15624;SDS011;7912;51.376;6.126;2022-09-02T10:21:06;2.43;;;2.00;;
15624;SDS011;7912;51.376;6.126;2022-09-02T10:23:46;2.63;;;1.90;;
15624;SDS011;7912;51.376;6.126;2022-09-02T10:26:45;2.33;;;2.13;;
15624;SDS011;7912;51.376;6.126;2022-09-02T10:32:14;2.80;;;2.17;;
15624;SDS011;7912;51.376;6.126;2022-09-02T10:40:38;2.87;;;2.10;;
15624;SDS011;7912;51.376;6.126;2022-09-02T10:44:07;3.53;;;1.90;;
15624;SDS011;7912;51.376;6.126;2022-09-02T10:46:24;1.70;;;1.60;;
15624;SDS011;7912;51.376;6.126;2022-09-02T10:49:01;1.93;;;1.70;;
15624;SDS011;7912;51.376;6.126;2022-09-02T11:00:18;2.33;;;1.67;;
15624;SDS011;7912;51.376;6.126;2022-09-02T11:05:48;4.00;;;1.60;;
15624;SDS011;7912;51.376;6.126;2022-09-02T11:08:45;1.70;;;1.47;;
15624;SDS011;7912;51.376;6.126;2022-09-02T11:14:15;2.10;;;1.87;;
15624;SDS011;7912;51.376;6.126;2022-09-02T11:19:45;2.17;;;1.97;;
15624;SDS011;7912;51.376;6.126;2022-09-02T11:22:33;3.57;;;2.20;;
15624;SDS011;7912;51.376;6.126;2022-09-02T11:25:30;2.43;;;1.60;;
15624;SDS011;7912;51.376;6.126;2022-09-02T11:31:11;1.83;;;1.70;;
15624;SDS011;7912;51.376;6.126;2022-09-02T11:34:09;2.50;;;1.60;;
15624;SDS011;7912;51.376;6.126;2022-09-02T11:37:05;2.07;;;1.50;;
15624;SDS011;7912;51.376;6.126;2022-09-02T11:39:44;2.17;;;1.50;;
15624;SDS011;7912;51.376;6.126;2022-09-02T11:43:47;1.70;;;1.60;;
15624;SDS011;7912;51.376;6.126;2022-09-02T11:54:48;2.27;;;1.33;;
15624;SDS011;7912;51.376;6.126;2022-09-02T11:57:31;2.70;;;1.47;;
15624;SDS011;7912;51.376;6.126;2022-09-02T12:00:01;1.57;;;1.47;;
15624;SDS011;7912;51.376;6.126;2022-09-02T12:02:43;1.80;;;1.33;;
15624;SDS011;7912;51.376;6.126;2022-09-02T12:18:42;1.90;;;1.80;;
15624;SDS011;7912;51.376;6.126;2022-09-02T12:21:33;2.03;;;1.57;;
15624;SDS011;7912;51.376;6.126;2022-09-02T12:24:02;1.80;;;1.70;;
15624;SDS011;7912;51.376;6.126;2022-09-02T12:31:52;2.40;;;1.77;;
15624;SDS011;7912;51.376;6.126;2022-09-02T12:37:07;2.00;;;1.60;;
15624;SDS011;7912;51.376;6.126;2022-09-02T12:50:26;1.80;;;1.70;;
15624;SDS011;7912;51.376;6.126;2022-09-02T12:53:39;1.50;;;1.40;;
15624;SDS011;7912;51.376;6.126;2022-09-02T12:58:54;1.80;;;1.70;;
15624;SDS011;7912;51.376;6.126;2022-09-02T13:25:30;1.50;;;1.40;;
15624;SDS011;7912;51.376;6.126;2022-09-02T13:31:21;1.80;;;1.70;;
15624;SDS011;7912;51.376;6.126;2022-09-02T13:34:05;1.67;;;1.50;;
15624;SDS011;7912;51.376;6.126;2022-09-02T13:36:42;2.45;;;1.80;;
15624;SDS011;7912;51.376;6.126;2022-09-02T13:41:53;1.67;;;1.50;;
15624;SDS011;7912;51.376;6.126;2022-09-02T13:44:26;3.28;;;1.75;;
15624;SDS011;7912;51.376;6.126;2022-09-02T13:49:41;3.07;;;1.50;;
15624;SDS011;7912;51.376;6.126;2022-09-02T13:52:20;1.63;;;1.50;;
15624;SDS011;7912;51.376;6.126;2022-09-02T13:55:10;2.27;;;1.47;;
15624;SDS011;7912;51.376;6.126;2022-09-02T13:57:44;4.00;;;1.67;;
15624;SDS011;7912;51.376;6.126;2022-09-02T14:00:39;1.87;;;1.63;;
15624;SDS011;7912;51.376;6.126;2022-09-02T14:03:18;1.65;;;1.55;;
15624;SDS011;7912;51.376;6.126;2022-09-02T14:05:48;2.50;;;1.48;;
15624;SDS011;7912;51.376;6.126;2022-09-02T14:08:23;1.95;;;1.60;;
15624;SDS011;7912;51.376;6.126;2022-09-02T14:10:54;1.58;;;1.48;;
15624;SDS011;7912;51.376;6.126;2022-09-02T14:13:23;1.40;;;1.30;;
15624;SDS011;7912;51.376;6.126;2022-09-02T14:15:52;2.72;;;1.63;;
15624;SDS011;7912;51.376;6.126;2022-09-02T14:18:21;1.50;;;1.40;;
15624;SDS011;7912;51.376;6.126;2022-09-02T14:21:09;1.58;;;1.40;;
15624;SDS011;7912;51.376;6.126;2022-09-02T14:23:51;1.98;;;1.70;;
15624;SDS011;7912;51.376;6.126;2022-09-02T14:26:19;1.80;;;1.45;;
15624;SDS011;7912;51.376;6.126;2022-09-02T14:29:17;1.45;;;1.30;;
15624;SDS011;7912;51.376;6.126;2022-09-02T14:32:01;1.58;;;1.48;;
15624;SDS011;7912;51.376;6.126;2022-09-02T14:34:43;1.90;;;1.63;;
15624;SDS011;7912;51.376;6.126;2022-09-02T14:37:21;1.90;;;1.60;;
15624;SDS011;7912;51.376;6.126;2022-09-02T14:39:52;2.33;;;1.80;;
15624;SDS011;7912;51.376;6.126;2022-09-02T14:42:44;1.63;;;1.45;;
15624;SDS011;7912;51.376;6.126;2022-09-02T14:45:30;2.00;;;1.50;;
15624;SDS011;7912;51.376;6.126;2022-09-02T14:48:01;2.47;;;1.50;;
15624;SDS011;7912;51.376;6.126;2022-09-02T14:50:42;2.03;;;1.83;;
15624;SDS011;7912;51.376;6.126;2022-09-02T14:53:09;1.98;;;1.63;;
15624;SDS011;7912;51.376;6.126;2022-09-02T14:55:51;1.70;;;1.60;;
15624;SDS011;7912;51.376;6.126;2022-09-02T14:58:22;3.00;;;1.60;;
15624;SDS011;7912;51.376;6.126;2022-09-02T15:00:59;3.90;;;1.27;;
15624;SDS011;7912;51.376;6.126;2022-09-02T15:03:28;2.10;;;1.60;;
15624;SDS011;7912;51.376;6.126;2022-09-02T15:06:01;1.60;;;1.50;;
15624;SDS011;7912;51.376;6.126;2022-09-02T15:08:29;1.55;;;1.42;;
15624;SDS011;7912;51.376;6.126;2022-09-02T15:10:57;1.50;;;1.40;;
15624;SDS011;7912;51.376;6.126;2022-09-02T15:13:32;2.72;;;1.73;;
15624;SDS011;7912;51.376;6.126;2022-09-02T15:16:00;5.22;;;1.45;;
15624;SDS011;7912;51.376;6.126;2022-09-02T15:18:28;1.63;;;1.52;;
15624;SDS011;7912;51.376;6.126;2022-09-02T15:20:55;1.80;;;1.70;;
15624;SDS011;7912;51.376;6.126;2022-09-02T15:23:23;1.75;;;1.65;;
15624;SDS011;7912;51.376;6.126;2022-09-02T15:25:52;2.53;;;1.67;;
15624;SDS011;7912;51.376;6.126;2022-09-02T15:28:19;2.13;;;1.80;;
15624;SDS011;7912;51.376;6.126;2022-09-02T15:30:47;1.60;;;1.50;;
15624;SDS011;7912;51.376;6.126;2022-09-02T15:33:14;2.25;;;1.90;;
15624;SDS011;7912;51.376;6.126;2022-09-02T15:35:43;3.30;;;1.70;;
15624;SDS011;7912;51.376;6.126;2022-09-02T15:38:12;1.87;;;1.77;;
15624;SDS011;7912;51.376;6.126;2022-09-02T15:40:40;1.73;;;1.63;;
15624;SDS011;7912;51.376;6.126;2022-09-02T15:43:08;1.63;;;1.40;;
15624;SDS011;7912;51.376;6.126;2022-09-02T15:45:46;5.67;;;1.87;;
15624;SDS011;7912;51.376;6.126;2022-09-02T15:48:13;2.43;;;2.23;;
15624;SDS011;7912;51.376;6.126;2022-09-02T15:50:41;3.65;;;1.77;;
15624;SDS011;7912;51.376;6.126;2022-09-02T15:53:12;2.97;;;2.40;;
15624;SDS011;7912;51.376;6.126;2022-09-02T15:55:41;3.40;;;2.30;;
15624;SDS011;7912;51.376;6.126;2022-09-02T15:58:08;3.87;;;1.87;;
15624;SDS011;7912;51.376;6.126;2022-09-02T16:00:36;2.22;;;1.73;;
15624;SDS011;7912;51.376;6.126;2022-09-02T16:03:03;1.70;;;1.60;;
15624;SDS011;7912;51.376;6.126;2022-09-02T16:05:31;2.23;;;1.80;;
15624;SDS011;7912;51.376;6.126;2022-09-02T16:07:58;1.60;;;1.50;;
15624;SDS011;7912;51.376;6.126;2022-09-02T16:10:25;1.88;;;1.65;;
15624;SDS011;7912;51.376;6.126;2022-09-02T16:12:53;3.88;;;1.90;;
15624;SDS011;7912;51.376;6.126;2022-09-02T16:15:21;2.47;;;1.50;;
15624;SDS011;7912;51.376;6.126;2022-09-02T16:17:49;3.07;;;1.43;;
15624;SDS011;7912;51.376;6.126;2022-09-02T16:20:18;1.70;;;1.60;;
15624;SDS011;7912;51.376;6.126;2022-09-02T16:22:46;3.00;;;1.90;;
15624;SDS011;7912;51.376;6.126;2022-09-02T16:25:14;2.03;;;1.57;;
15624;SDS011;7912;51.376;6.126;2022-09-02T16:27:42;2.23;;;1.57;;
15624;SDS011;7912;51.376;6.126;2022-09-02T16:30:18;1.83;;;1.53;;
15624;SDS011;7912;51.376;6.126;2022-09-02T16:32:47;1.93;;;1.60;;
15624;SDS011;7912;51.376;6.126;2022-09-02T16:35:17;1.70;;;1.60;;
15624;SDS011;7912;51.376;6.126;2022-09-02T16:37:44;2.13;;;1.70;;
15624;SDS011;7912;51.376;6.126;2022-09-02T16:40:11;2.07;;;1.70;;
15624;SDS011;7912;51.376;6.126;2022-09-02T16:42:47;2.23;;;1.77;;
15624;SDS011;7912;51.376;6.126;2022-09-02T16:45:14;1.70;;;1.60;;
15624;SDS011;7912;51.376;6.126;2022-09-02T16:47:42;1.87;;;1.63;;
15624;SDS011;7912;51.376;6.126;2022-09-02T16:50:09;2.30;;;1.60;;
15624;SDS011;7912;51.376;6.126;2022-09-02T16:52:37;1.70;;;1.60;;
15624;SDS011;7912;51.376;6.126;2022-09-02T16:55:06;2.90;;;1.90;;
15624;SDS011;7912;51.376;6.126;2022-09-02T16:57:34;2.93;;;1.67;;
15624;SDS011;7912;51.376;6.126;2022-09-02T17:00:02;1.60;;;1.50;;
15624;SDS011;7912;51.376;6.126;2022-09-02T17:02:31;1.80;;;1.70;;
15624;SDS011;7912;51.376;6.126;2022-09-02T17:04:58;2.10;;;1.70;;
15624;SDS011;7912;51.376;6.126;2022-09-02T17:07:25;2.00;;;1.70;;
15624;SDS011;7912;51.376;6.126;2022-09-02T17:09:52;3.20;;;1.80;;
15624;SDS011;7912;51.376;6.126;2022-09-02T17:12:20;2.23;;;1.60;;
15624;SDS011;7912;51.376;6.126;2022-09-02T17:14:47;1.87;;;1.57;;
15624;SDS011;7912;51.376;6.126;2022-09-02T17:17:14;2.53;;;1.77;;
15624;SDS011;7912;51.376;6.126;2022-09-02T17:19:42;2.87;;;1.60;;
15624;SDS011;7912;51.376;6.126;2022-09-02T17:22:09;2.80;;;1.60;;
15624;SDS011;7912;51.376;6.126;2022-09-02T17:24:37;2.00;;;1.77;;
15624;SDS011;7912;51.376;6.126;2022-09-02T17:27:07;2.10;;;1.90;;
15624;SDS011;7912;51.376;6.126;2022-09-02T17:29:34;1.50;;;1.40;;
15624;SDS011;7912;51.376;6.126;2022-09-02T17:32:18;2.23;;;1.90;;
15624;SDS011;7912;51.376;6.126;2022-09-02T17:34:47;2.47;;;2.00;;
15624;SDS011;7912;51.376;6.126;2022-09-02T17:37:16;1.80;;;1.70;;
15624;SDS011;7912;51.376;6.126;2022-09-02T17:39:44;1.70;;;1.60;;
15624;SDS011;7912;51.376;6.126;2022-09-02T17:42:12;1.60;;;1.50;;
15624;SDS011;7912;51.376;6.126;2022-09-02T17:44:39;1.70;;;1.60;;
15624;SDS011;7912;51.376;6.126;2022-09-02T17:47:09;1.60;;;1.50;;
15624;SDS011;7912;51.376;6.126;2022-09-02T17:49:39;2.33;;;1.80;;